Kipton, Ohio
Current Conditions -  °F | °C
As of 4:53 AM on Saturday 22 Nov 2014 (Local Time) from KLPR Reporting Station
Broken Clouds Broken Clouds  
Wind Chill: 12°   Ceiling: 4500
Heat Index: 24°   Visibility: 10mi
Dew Point: 11°   Wind: 13mph
Humidity: 57%   Direction: 200°SSW
Pressure: 30.27"   Gusts: NA
Location:  41.27°N, 82.3°W
Report Text: KLPR 220953Z AUTO 20011KT 10SM BKN045 BKN060 M04/M12 A3027 RMK AO2 SLP262 T10441117 TSNO
Loading
Personal Weather Stations






























Interactive Weather Map New forecast layout! Learn more

10-Day Weather Forecast

Advertisements
Track Severe Weather on mobile